EmailTwitter


Observations de surface / France / LFBP (07610)

Régions: Québec | Canada | États-Unis | Europe | France | UK | Ailleurs
Station
Affichage
Infos & localisation pour LFBP (07610) | Aide pour décoder les METARs

Observations prises le 2019-04-26 à 12H00 UTC à PONT-LONG-UZEIN/, FR (LFBP)

Etat du ciel: partiellement nuageux.

Température: 14.0 Celsius

Point de rosée: 10.0 Celsius

Humidité relative: 77%

Facteur vent: 12.

Vents: Ouest à 35 km/h ou 19 noeuds.

Pression au niveau moyen de la mer: 102.30 kilopascals.

Visibilité horizontale: 6.21 milles terrestres ou 9.94 kilomètres.

Hauteur du plafond: 671 mètres ( 2200 pieds ).

Observation METAR:

LFBP 261200Z AUTO 26019KT 9999 BKN022/// BKN029/// BKN048/// ///TCU 14/10 Q1023

TEMPO 27018G30KT 4000 SHRA BKN009 FEW025CB BKN030TCU=